createdAt,value
2019-04-07T00:00:23.383Z,4.1875
2019-04-07T00:01:26.338Z,4.2008
2019-04-07T00:02:29.192Z,4.4144
2019-04-07T00:03:32.360Z,4.4999
2019-04-07T00:04:35.201Z,4.7242
2019-04-07T00:05:38.182Z,4.6414
2019-04-07T00:06:42.834Z,4.4438
2019-04-07T00:07:45.183Z,4.1180
2019-04-07T00:08:48.260Z,3.8643
2019-04-07T00:09:51.335Z,3.7923
2019-04-07T00:10:54.179Z,3.9765
2019-04-07T00:11:57.196Z,4.1314
2019-04-07T00:13:00.196Z,4.1314
2019-04-07T00:14:03.214Z,4.2142
2019-04-07T00:15:06.205Z,4.2142
2019-04-07T00:16:09.790Z,4.4305
2019-04-07T00:17:12.227Z,4.5853
2019-04-07T00:18:15.217Z,4.6975
2019-04-07T00:19:18.288Z,4.6681
2019-04-07T00:20:21.199Z,4.7402
2019-04-07T00:21:24.182Z,4.7108
2019-04-07T00:22:27.219Z,4.6841
2019-04-07T00:23:30.751Z,4.6548
2019-04-07T00:24:33.250Z,4.3317
2019-04-07T00:25:36.347Z,4.3877
2019-04-07T00:26:39.411Z,4.3717
2019-04-07T00:27:42.206Z,4.4705
2019-04-07T00:28:45.415Z,4.3717
2019-04-07T00:29:48.655Z,4.3156
2019-04-07T00:30:51.333Z,4.3317
2019-04-07T00:31:54.190Z,4.7963
2019-04-07T00:32:57.194Z,4.6414
2019-04-07T00:34:00.473Z,4.7536
2019-04-07T00:35:03.186Z,4.9512
2019-04-07T00:36:06.178Z,5.0526
2019-04-07T00:37:09.182Z,5.1915
2019-04-07T00:38:12.728Z,4.9352
2019-04-07T00:39:15.198Z,4.9084
2019-04-07T00:40:18.572Z,5.1087
2019-04-07T00:41:21.210Z,5.0366
2019-04-07T00:42:24.725Z,4.8791
2019-04-07T00:43:27.799Z,4.7242
2019-04-07T00:44:30.175Z,4.8390
2019-04-07T00:45:33.745Z,4.8230
2019-04-07T00:46:36.538Z,4.5426
2019-04-07T00:47:40.312Z,4.4011
2019-04-07T00:48:43.178Z,4.3317
2019-04-07T00:49:46.587Z,4.2889
2019-04-07T00:50:49.178Z,4.6548
2019-04-07T00:51:52.897Z,4.6254
2019-04-07T00:52:56.191Z,5.1514
2019-04-07T00:53:59.750Z,5.1782
2019-04-07T00:55:02.317Z,5.0072
2019-04-07T00:56:05.193Z,4.6548
2019-04-07T00:57:08.260Z,4.4705
2019-04-07T00:58:11.561Z,4.3584
2019-04-07T00:59:14.392Z,4.5426
2019-04-07T01:00:18.174Z,4.5426
2019-04-07T01:01:21.707Z,4.3317
2019-04-07T01:02:24.483Z,4.9512
2019-04-07T01:03:27.583Z,4.7803
2019-04-07T01:04:30.682Z,4.5293
2019-04-07T01:05:36.752Z,4.6548
2019-04-07T01:06:41.592Z,4.3584
2019-04-07T01:07:45.244Z,4.9779
2019-04-07T01:08:48.218Z,4.8096
2019-04-07T01:09:51.201Z,4.9779
2019-04-07T01:10:53.340Z,4.6681
2019-04-07T01:11:56.204Z,4.8390
2019-04-07T01:12:59.193Z,4.9084
2019-04-07T01:14:02.783Z,4.7402
2019-04-07T01:15:05.194Z,4.8524
2019-04-07T01:16:08.199Z,4.6120
2019-04-07T01:17:13.740Z,4.9084
2019-04-07T01:18:18.237Z,5.4612
2019-04-07T01:19:21.189Z,5.4318
2019-04-07T01:20:24.375Z,5.4746
2019-04-07T01:21:27.187Z,5.3197
2019-04-07T01:22:30.884Z,5.2502
2019-04-07T01:23:34.750Z,5.0366
2019-04-07T01:24:37.280Z,4.8096
2019-04-07T01:25:40.207Z,4.7108
2019-04-07T01:26:43.565Z,4.5560
2019-04-07T01:27:47.248Z,4.4999
2019-04-07T01:28:50.757Z,4.3877
2019-04-07T01:29:53.192Z,4.7536
2019-04-07T01:30:56.816Z,4.6681
2019-04-07T01:31:59.423Z,4.7242
2019-04-07T01:33:02.250Z,4.9645
2019-04-07T01:34:05.183Z,4.8230
2019-04-07T01:35:08.203Z,4.8657
2019-04-07T01:36:11.300Z,5.1221
2019-04-07T01:37:14.186Z,5.0660
2019-04-07T01:38:16.761Z,5.0793
2019-04-07T01:39:19.448Z,5.0072
2019-04-07T01:40:22.202Z,5.1782
2019-04-07T01:41:25.412Z,5.0793
2019-04-07T01:42:28.187Z,5.3624
2019-04-07T01:43:31.759Z,5.3063
2019-04-07T01:44:33.411Z,5.2342
2019-04-07T01:45:36.909Z,5.1514
2019-04-07T01:46:40.456Z,5.1648
2019-04-07T01:47:43.190Z,5.2502
2019-04-07T01:48:46.839Z,5.2502
2019-04-07T01:49:49.255Z,5.3758
2019-04-07T01:50:52.642Z,5.3624
2019-04-07T01:51:55.526Z,5.1915
2019-04-07T01:52:58.190Z,5.2502
2019-04-07T01:54:01.206Z,5.2209
2019-04-07T01:55:04.836Z,5.1514
2019-04-07T01:56:07.632Z,5.0526
2019-04-07T01:57:10.283Z,4.8951
2019-04-07T01:58:13.183Z,4.9352
2019-04-07T01:59:16.678Z,4.8096
2019-04-07T02:00:19.193Z,4.9218
2019-04-07T02:01:22.195Z,4.9352
2019-04-07T02:02:25.281Z,4.8390
2019-04-07T02:03:28.246Z,4.7803
2019-04-07T02:04:31.193Z,4.7963
2019-04-07T02:05:34.264Z,4.7669
2019-04-07T02:06:37.403Z,4.9352
2019-04-07T02:07:40.187Z,4.8791
2019-04-07T02:08:43.181Z,5.0793
2019-04-07T02:09:46.854Z,4.9645
2019-04-07T02:10:49.579Z,4.9512
2019-04-07T02:11:52.968Z,5.1221
2019-04-07T02:12:56.656Z,5.4612
2019-04-07T02:13:59.303Z,5.3330
2019-04-07T02:15:02.401Z,5.1354
2019-04-07T02:16:04.918Z,5.0233
2019-04-07T02:17:08.190Z,4.9218
2019-04-07T02:18:11.406Z,5.0072
2019-04-07T02:19:13.190Z,5.0526
2019-04-07T02:20:16.745Z,5.0526
2019-04-07T02:21:19.669Z,5.0366
2019-04-07T02:22:21.207Z,4.9352
2019-04-07T02:23:24.197Z,4.9084
2019-04-07T02:24:28.342Z,4.8951
2019-04-07T02:25:31.698Z,4.8524
2019-04-07T02:26:34.385Z,4.7242
2019-04-07T02:27:37.190Z,4.6548
2019-04-07T02:28:40.827Z,4.6681
2019-04-07T02:29:43.414Z,4.7108
2019-04-07T02:30:46.195Z,4.7402
2019-04-07T02:31:48.185Z,4.8390
2019-04-07T02:32:51.208Z,4.9939
2019-04-07T02:33:54.539Z,5.0660
2019-04-07T02:34:57.510Z,5.0660
2019-04-07T02:36:13.285Z,5.2636
2019-04-07T02:37:08.179Z,5.5173
2019-04-07T02:38:14.589Z,5.6001
2019-04-07T02:39:19.548Z,5.9125
2019-04-07T02:40:23.377Z,5.9552
2019-04-07T02:41:27.432Z,5.8564
2019-04-07T02:42:30.478Z,5.9552
2019-04-07T02:43:33.941Z,5.9979
2019-04-07T02:44:37.192Z,6.0540
2019-04-07T02:45:41.104Z,5.9419
2019-04-07T02:46:44.214Z,5.9552
2019-04-07T02:47:47.191Z,5.7549
2019-04-07T02:48:51.168Z,5.9686
2019-04-07T02:49:54.198Z,5.9285
2019-04-07T02:50:57.253Z,5.8564
2019-04-07T02:52:00.533Z,5.8991
2019-04-07T02:53:03.251Z,5.7149
2019-04-07T02:54:06.200Z,5.5600
2019-04-07T02:55:09.205Z,5.5173
2019-04-07T02:56:13.233Z,5.6428
2019-04-07T02:57:16.189Z,5.6561
2019-04-07T02:58:19.181Z,5.5440
2019-04-07T02:59:23.089Z,5.5600
2019-04-07T03:00:26.189Z,5.4318
2019-04-07T03:01:29.729Z,5.2903
2019-04-07T03:02:32.203Z,5.3758
2019-04-07T03:03:35.205Z,5.2342
2019-04-07T03:04:38.458Z,5.2502
2019-04-07T03:05:41.184Z,5.3758
2019-04-07T03:06:49.977Z,5.2636
2019-04-07T03:07:53.084Z,5.1915
2019-04-07T03:08:57.011Z,5.0366
2019-04-07T03:10:00.339Z,4.8951
2019-04-07T03:11:03.224Z,4.9352
2019-04-07T03:12:07.210Z,5.0526
2019-04-07T03:13:09.301Z,5.0660
2019-04-07T03:14:12.437Z,5.3197
2019-04-07T03:15:16.087Z,5.3330
2019-04-07T03:16:19.504Z,5.2075
2019-04-07T03:17:23.298Z,5.2903
2019-04-07T03:18:27.014Z,5.3891
2019-04-07T03:19:30.190Z,5.2636
2019-04-07T03:20:33.181Z,5.5734
2019-04-07T03:21:36.334Z,5.5600
2019-04-07T03:22:39.755Z,5.6561
2019-04-07T03:23:42.190Z,5.4612
2019-04-07T03:24:45.182Z,5.4612
2019-04-07T03:25:48.553Z,5.7549
2019-04-07T03:26:51.557Z,5.6989
2019-04-07T03:27:53.180Z,5.6161
2019-04-07T03:28:56.188Z,5.7282
2019-04-07T03:29:59.179Z,5.9686
2019-04-07T03:31:03.931Z,5.7282
2019-04-07T03:32:08.551Z,5.9552
2019-04-07T03:33:15.647Z,6.2383
2019-04-07T03:34:20.630Z,6.0967
2019-04-07T03:35:28.531Z,6.0407
2019-04-07T03:36:41.082Z,6.1101
2019-04-07T03:37:44.322Z,6.2383
2019-04-07T03:38:48.357Z,5.9846
2019-04-07T03:39:51.310Z,6.1662
2019-04-07T03:40:55.009Z,6.1395
2019-04-07T03:41:59.310Z,6.0407
2019-04-07T03:43:02.189Z,6.0540
2019-04-07T03:44:06.074Z,6.2516
2019-04-07T03:45:10.095Z,6.0834
2019-04-07T03:46:14.132Z,6.0113
2019-04-07T03:47:18.290Z,5.9686
2019-04-07T03:48:21.224Z,5.9552
2019-04-07T03:49:24.189Z,6.1822
2019-04-07T03:50:27.373Z,6.0273
2019-04-07T03:51:30.288Z,6.1528
2019-04-07T03:52:33.869Z,6.3771
2019-04-07T03:53:37.191Z,6.3210
2019-04-07T03:54:40.193Z,6.2943
2019-04-07T03:55:43.809Z,6.2810
2019-04-07T03:56:47.678Z,6.3210
2019-04-07T03:57:50.684Z,6.0540
2019-04-07T03:58:53.765Z,6.0674
2019-04-07T03:59:57.779Z,5.7977
2019-04-07T04:01:00.612Z,5.6855
2019-04-07T04:02:03.572Z,5.5306
2019-04-07T04:03:06.650Z,5.4185
2019-04-07T04:04:09.665Z,5.4318
2019-04-07T04:05:12.455Z,5.6161
2019-04-07T04:06:15.180Z,5.8724
2019-04-07T04:07:29.203Z,5.8297
2019-04-07T04:08:26.621Z,5.7416
2019-04-07T04:09:30.354Z,5.7843
2019-04-07T04:10:33.205Z,6.1662
2019-04-07T04:11:36.149Z,5.9419
2019-04-07T04:12:39.169Z,5.9285
2019-04-07T04:13:42.345Z,5.7416
2019-04-07T04:14:45.360Z,5.7282
2019-04-07T04:15:48.193Z,5.8297
2019-04-07T04:16:51.203Z,5.6161
2019-04-07T04:17:55.241Z,5.6989
2019-04-07T04:18:58.759Z,5.5734
2019-04-07T04:20:01.186Z,5.5013
2019-04-07T04:21:04.187Z,5.4879
2019-04-07T04:22:07.450Z,5.6722
2019-04-07T04:23:10.451Z,5.6001
2019-04-07T04:24:14.342Z,5.6428
2019-04-07T04:25:17.294Z,5.5734
2019-04-07T04:26:20.188Z,5.6001
2019-04-07T04:27:23.816Z,5.5600
2019-04-07T04:28:29.066Z,5.4612
2019-04-07T04:29:33.192Z,5.3891
2019-04-07T04:30:37.034Z,5.4185
2019-04-07T04:31:40.183Z,5.5013
2019-04-07T04:32:43.655Z,5.4051
2019-04-07T04:33:46.375Z,5.4051
2019-04-07T04:34:49.656Z,5.4452
2019-04-07T04:35:52.178Z,5.4746
2019-04-07T04:36:56.206Z,5.4612
2019-04-07T04:37:59.789Z,5.4879
2019-04-07T04:39:02.202Z,5.4746
2019-04-07T04:40:05.239Z,5.4746
2019-04-07T04:41:08.191Z,5.4452
2019-04-07T04:42:11.529Z,5.3758
2019-04-07T04:43:14.182Z,5.4452
2019-04-07T04:44:17.214Z,5.3891
2019-04-07T04:45:20.263Z,5.3891
2019-04-07T04:46:23.907Z,5.3464
2019-04-07T04:47:27.545Z,5.2636
2019-04-07T04:48:30.194Z,5.2636
2019-04-07T04:49:33.241Z,5.2342
2019-04-07T04:50:36.215Z,5.2075
2019-04-07T04:51:40.754Z,5.0072
2019-04-07T04:52:45.462Z,4.8951
2019-04-07T04:53:48.187Z,5.0072
2019-04-07T04:54:51.784Z,4.9352
2019-04-07T04:55:55.671Z,4.7536
2019-04-07T04:56:58.874Z,5.1221
2019-04-07T04:58:02.221Z,4.8524
2019-04-07T04:59:06.040Z,4.9939
2019-04-07T05:00:09.231Z,5.0793
2019-04-07T05:01:12.250Z,4.8791
2019-04-07T05:02:15.961Z,4.8657
2019-04-07T05:03:19.468Z,4.8096
2019-04-07T05:04:22.886Z,5.1915
2019-04-07T05:05:26.193Z,5.0366
2019-04-07T05:06:29.674Z,5.3758
2019-04-07T05:07:32.193Z,5.2770
2019-04-07T05:08:35.899Z,5.2636
2019-04-07T05:09:46.228Z,5.1915
2019-04-07T05:10:47.336Z,5.1648
2019-04-07T05:11:50.594Z,5.5306
2019-04-07T05:12:54.977Z,5.5013
2019-04-07T05:13:58.208Z,5.3891
2019-04-07T05:15:01.704Z,5.6161
2019-04-07T05:16:04.992Z,5.6561
2019-04-07T05:17:08.269Z,5.8297
2019-04-07T05:18:11.193Z,6.0113
2019-04-07T05:19:14.314Z,6.1234
2019-04-07T05:20:17.335Z,6.0273
2019-04-07T05:21:20.736Z,6.1955
2019-04-07T05:22:23.196Z,6.0834
2019-04-07T05:23:26.172Z,6.0540
2019-04-07T05:24:29.205Z,5.9285
2019-04-07T05:25:32.744Z,5.9552
2019-04-07T05:26:35.184Z,5.8564
2019-04-07T05:27:38.307Z,6.0273
2019-04-07T05:28:42.259Z,5.9686
2019-04-07T05:29:45.715Z,5.8564
2019-04-07T05:30:48.178Z,5.8724
2019-04-07T05:31:50.338Z,6.0674
2019-04-07T05:32:53.474Z,6.2650
2019-04-07T05:33:56.557Z,6.1395
2019-04-07T05:34:59.305Z,6.3077
2019-04-07T05:36:02.188Z,6.3077
2019-04-07T05:37:04.184Z,6.3210
2019-04-07T05:38:08.302Z,6.2943
2019-04-07T05:39:11.838Z,6.4198
2019-04-07T05:40:14.187Z,6.2943
2019-04-07T05:41:17.215Z,6.4626
2019-04-07T05:42:20.176Z,6.6762
2019-04-07T05:43:23.189Z,6.7189
2019-04-07T05:44:26.645Z,6.5747
2019-04-07T05:45:29.194Z,6.6201
2019-04-07T05:46:32.324Z,6.6495
2019-04-07T05:47:35.207Z,6.7189
2019-04-07T05:48:38.305Z,6.6068
2019-04-07T05:49:41.438Z,6.7884
2019-04-07T05:50:44.887Z,6.7056
2019-04-07T05:51:48.184Z,6.6628
2019-04-07T05:52:53.208Z,6.5187
2019-04-07T05:53:56.189Z,6.3077
2019-04-07T05:54:59.196Z,6.3638
2019-04-07T05:56:02.283Z,6.5747
2019-04-07T05:57:05.450Z,6.5934
2019-04-07T05:58:08.510Z,6.4359
2019-04-07T05:59:13.092Z,6.2516
2019-04-07T06:00:17.180Z,6.3077
2019-04-07T06:01:23.392Z,6.2222
2019-04-07T06:02:27.393Z,6.2089
2019-04-07T06:03:31.792Z,6.2222
2019-04-07T06:04:34.783Z,6.0967
2019-04-07T06:05:38.501Z,5.9686
2019-04-07T06:06:42.041Z,5.9552
2019-04-07T06:07:44.631Z,5.9686
2019-04-07T06:08:47.803Z,6.0674
2019-04-07T06:09:52.683Z,6.2516
2019-04-07T06:11:00.338Z,6.3077
2019-04-07T06:12:08.501Z,6.3504
2019-04-07T06:13:15.049Z,6.4065
2019-04-07T06:14:18.174Z,6.4492
2019-04-07T06:15:22.311Z,6.4759
2019-04-07T06:16:26.751Z,6.6628
2019-04-07T06:17:30.316Z,6.9299
2019-04-07T06:18:34.233Z,6.8605
2019-04-07T06:19:40.585Z,7.0714
2019-04-07T06:20:45.341Z,7.2824
2019-04-07T06:21:48.895Z,7.4266
2019-04-07T06:22:53.647Z,7.5814
2019-04-07T06:23:59.860Z,7.5387
2019-04-07T06:25:05.253Z,7.7070
2019-04-07T06:26:11.336Z,7.6802
2019-04-07T06:27:16.951Z,7.8752
2019-04-07T06:28:20.723Z,7.9900
2019-04-07T06:29:26.116Z,8.0728
2019-04-07T06:30:31.183Z,8.0461
2019-04-07T06:31:35.248Z,8.1449
2019-04-07T06:32:39.509Z,8.0034
2019-04-07T06:33:42.180Z,8.0461
2019-04-07T06:34:45.893Z,7.9740
2019-04-07T06:35:53.092Z,7.9339
2019-04-07T06:36:57.175Z,7.9179
2019-04-07T06:38:05.083Z,7.9473
2019-04-07T06:39:08.306Z,7.8618
2019-04-07T06:40:11.215Z,7.8752
2019-04-07T06:41:14.170Z,7.9179
2019-04-07T06:42:17.592Z,7.8485
2019-04-07T06:43:20.334Z,7.7924
2019-04-07T06:44:24.192Z,7.7630
2019-04-07T06:45:27.188Z,7.8351
2019-04-07T06:46:30.610Z,7.7790
2019-04-07T06:47:33.563Z,7.7203
2019-04-07T06:48:37.999Z,7.8351
2019-04-07T06:49:44.734Z,7.8485
2019-04-07T06:50:56.597Z,7.9339
2019-04-07T06:52:00.702Z,8.1449
2019-04-07T06:53:05.466Z,8.3719
2019-04-07T06:54:08.169Z,8.4413
2019-04-07T06:55:11.200Z,8.6122
2019-04-07T06:56:14.334Z,8.7671
2019-04-07T06:57:17.393Z,8.6389
2019-04-07T06:58:19.732Z,8.8792
2019-04-07T06:59:22.992Z,8.8499
2019-04-07T07:00:28.908Z,8.8365
2019-04-07T07:01:32.291Z,8.8926
2019-04-07T07:02:36.721Z,8.7671
2019-04-07T07:03:40.978Z,8.6950
2019-04-07T07:04:45.829Z,8.8365
2019-04-07T07:05:49.515Z,8.7804
2019-04-07T07:06:52.580Z,8.6950
2019-04-07T07:07:57.341Z,8.7377
2019-04-07T07:09:00.801Z,8.7110
2019-04-07T07:10:03.325Z,8.7938
2019-04-07T07:11:09.471Z,8.7537
2019-04-07T07:12:20.063Z,8.7938
2019-04-07T07:13:29.854Z,8.7804
2019-04-07T07:14:34.930Z,8.8792
2019-04-07T07:15:38.602Z,8.8926
2019-04-07T07:16:43.780Z,8.8926
2019-04-07T07:17:51.917Z,9.0234
2019-04-07T07:18:56.026Z,8.9220
2019-04-07T07:20:02.570Z,9.1783
2019-04-07T07:21:07.174Z,9.3038
2019-04-07T07:22:14.756Z,9.1062
2019-04-07T07:23:19.174Z,9.1623
2019-04-07T07:24:24.928Z,9.2344
2019-04-07T07:25:31.835Z,9.0928
2019-04-07T07:26:35.517Z,9.1222
2019-04-07T07:27:39.730Z,9.2905
2019-04-07T07:28:44.943Z,9.2611
2019-04-07T07:29:51.695Z,9.2771
2019-04-07T07:30:54.677Z,8.9353
2019-04-07T07:32:02.476Z,9.2477
2019-04-07T07:33:09.477Z,9.2477
2019-04-07T07:34:13.321Z,9.5869
2019-04-07T07:35:16.440Z,9.5308
2019-04-07T07:36:21.461Z,9.4587
2019-04-07T07:37:26.898Z,9.5575
2019-04-07T07:38:32.707Z,9.4881
2019-04-07T07:39:36.318Z,9.7711
2019-04-07T07:40:39.651Z,9.7578
2019-04-07T07:41:42.192Z,9.5014
2019-04-07T07:42:46.649Z,9.6269
2019-04-07T07:43:51.413Z,9.7578
2019-04-07T07:44:55.895Z,9.6563
2019-04-07T07:46:00.147Z,9.5148
2019-04-07T07:47:03.190Z,9.7578
2019-04-07T07:48:06.384Z,9.5441
2019-04-07T07:49:09.192Z,9.7578
2019-04-07T07:50:12.188Z,9.5708
2019-04-07T07:51:15.454Z,9.0368
2019-04-07T07:52:21.013Z,8.9940
2019-04-07T07:53:28.128Z,9.3038
2019-04-07T07:54:31.630Z,9.3332
2019-04-07T07:55:37.407Z,9.3759
2019-04-07T07:56:43.244Z,9.5708
2019-04-07T07:57:48.229Z,9.2611
2019-04-07T07:58:51.200Z,9.3893
2019-04-07T07:59:54.191Z,9.5308
2019-04-07T08:01:00.094Z,9.4160
2019-04-07T08:02:04.189Z,9.5308
2019-04-07T08:03:07.897Z,9.6269
2019-04-07T08:04:12.993Z,9.5869
2019-04-07T08:05:16.174Z,9.4320
2019-04-07T08:06:19.406Z,9.2050
2019-04-07T08:07:22.184Z,9.1783
2019-04-07T08:08:25.406Z,9.2344
2019-04-07T08:09:28.374Z,9.3038
2019-04-07T08:10:45.095Z,9.2905
2019-04-07T08:11:48.935Z,9.3893
2019-04-07T08:12:53.390Z,9.2771
2019-04-07T08:13:56.762Z,9.1917
2019-04-07T08:14:59.908Z,9.5441
2019-04-07T08:16:06.435Z,9.7578
2019-04-07T08:17:08.498Z,9.6136
2019-04-07T08:18:12.468Z,9.6002
2019-04-07T08:19:15.185Z,9.6429
2019-04-07T08:20:19.598Z,9.5869
2019-04-07T08:21:22.576Z,9.8699
2019-04-07T08:22:29.934Z,9.6002
2019-04-07T08:23:33.183Z,9.5441
2019-04-07T08:24:36.279Z,9.3759
2019-04-07T08:25:40.031Z,9.3893
2019-04-07T08:26:44.802Z,9.4587
2019-04-07T08:27:48.868Z,9.6136
2019-04-07T08:28:50.310Z,9.7150
2019-04-07T08:29:53.543Z,9.6429
2019-04-07T08:30:56.193Z,9.7711
2019-04-07T08:32:07.750Z,9.8993
2019-04-07T08:33:10.216Z,9.7284
2019-04-07T08:34:20.909Z,10.0248
2019-04-07T08:35:24.952Z,9.9981
2019-04-07T08:36:28.175Z,10.4227
2019-04-07T08:37:31.202Z,10.4227
2019-04-07T08:38:34.379Z,10.7591
2019-04-07T08:39:38.743Z,10.2090
2019-04-07T08:40:41.176Z,10.5348
2019-04-07T08:41:50.873Z,10.7324
2019-04-07T08:42:53.199Z,10.7752
2019-04-07T08:43:57.790Z,11.0128
2019-04-07T08:45:03.215Z,11.3813
2019-04-07T08:46:06.341Z,11.3119
2019-04-07T08:47:12.379Z,11.0582
2019-04-07T08:48:21.643Z,11.2985
2019-04-07T08:49:25.392Z,11.1704
2019-04-07T08:50:29.838Z,11.4668
2019-04-07T08:51:32.877Z,11.5389
2019-04-07T08:52:38.528Z,11.6510
2019-04-07T08:53:44.943Z,11.3546
2019-04-07T08:54:50.604Z,11.1704
2019-04-07T08:55:56.985Z,12.2305
2019-04-07T08:57:00.248Z,11.7926
2019-04-07T08:58:05.299Z,11.1864
2019-04-07T08:59:11.143Z,10.6897
2019-04-07T09:00:17.431Z,10.5642
2019-04-07T09:01:22.260Z,10.3933
2019-04-07T09:02:28.433Z,10.5642
2019-04-07T09:03:33.246Z,10.5909
2019-04-07T09:04:37.236Z,11.3119
2019-04-07T09:05:41.267Z,11.3119
2019-04-07T09:06:46.216Z,11.5389
2019-04-07T09:07:51.896Z,11.9074
2019-04-07T09:08:55.221Z,11.1704
2019-04-07T09:09:57.820Z,11.5950
2019-04-07T09:11:00.172Z,12.2732
2019-04-07T09:12:03.202Z,11.5522
2019-04-07T09:13:08.497Z,11.8353
2019-04-07T09:14:15.969Z,11.8914
2019-04-07T09:15:20.199Z,11.6350
2019-04-07T09:16:25.231Z,11.7071
2019-04-07T09:17:33.231Z,11.2558
2019-04-07T09:18:37.389Z,11.2692
2019-04-07T09:19:40.221Z,11.5389
2019-04-07T09:20:44.911Z,11.7926
2019-04-07T09:21:51.736Z,12.5723
2019-04-07T09:22:57.027Z,12.1744
2019-04-07T09:24:01.179Z,11.9074
2019-04-07T09:25:09.283Z,11.5389
2019-04-07T09:26:13.944Z,11.4107
2019-04-07T09:27:23.247Z,12.1878
2019-04-07T09:28:27.390Z,12.2011
2019-04-07T09:29:31.231Z,11.5522
2019-04-07T09:30:34.208Z,11.2692
2019-04-07T09:31:37.182Z,11.3813
2019-04-07T09:32:40.578Z,11.7926
2019-04-07T09:33:43.294Z,11.6350
2019-04-07T09:34:48.256Z,11.1704
2019-04-07T09:35:56.691Z,11.1143
2019-04-07T09:37:03.308Z,10.5055
2019-04-07T09:38:07.985Z,10.6764
2019-04-07T09:39:11.243Z,11.0128
2019-04-07T09:40:17.362Z,10.6630
2019-04-07T09:41:23.158Z,10.5482
2019-04-07T09:42:29.039Z,10.5215
2019-04-07T09:43:34.795Z,10.2224
2019-04-07T09:44:37.756Z,10.6336
2019-04-07T09:45:40.325Z,10.7031
2019-04-07T09:46:48.409Z,10.5055
2019-04-07T09:47:51.287Z,10.5348
2019-04-07T09:48:54.182Z,10.8873
2019-04-07T09:49:58.158Z,10.8446
2019-04-07T09:51:05.701Z,10.8019
2019-04-07T09:52:13.183Z,10.8019
2019-04-07T09:53:19.674Z,11.1704
2019-04-07T09:54:23.501Z,11.2985
2019-04-07T09:55:27.021Z,11.2558
2019-04-07T09:56:32.911Z,11.6217
2019-04-07T09:57:38.710Z,11.5229
2019-04-07T09:58:43.575Z,11.7071
2019-04-07T09:59:52.418Z,12.0329
2019-04-07T10:01:01.428Z,12.3293
2019-04-07T10:02:06.278Z,12.1878
2019-04-07T10:03:15.445Z,12.2999
2019-04-07T10:04:19.201Z,11.9902
2019-04-07T10:05:22.216Z,11.7792
2019-04-07T10:06:25.190Z,11.7071
2019-04-07T10:07:29.492Z,11.3252
2019-04-07T10:08:32.923Z,11.3813
2019-04-07T10:09:36.795Z,11.0716
2019-04-07T10:10:39.851Z,11.0288
2019-04-07T10:11:46.184Z,11.2985
2019-04-07T10:12:49.996Z,10.9728
2019-04-07T10:13:53.180Z,10.9861
2019-04-07T10:14:57.663Z,10.8579
2019-04-07T10:16:01.240Z,10.8740
2019-04-07T10:17:05.156Z,10.8179
2019-04-07T10:18:09.790Z,10.8740
2019-04-07T10:19:12.991Z,10.9567
2019-04-07T10:20:16.203Z,10.5482
2019-04-07T10:21:19.626Z,10.7752
2019-04-07T10:22:22.219Z,10.8579
2019-04-07T10:23:25.384Z,10.6203
2019-04-07T10:24:35.918Z,11.1704
2019-04-07T10:25:40.344Z,11.2264
2019-04-07T10:26:44.067Z,11.0422
2019-04-07T10:27:47.196Z,11.0288
2019-04-07T10:28:51.640Z,11.2131
2019-04-07T10:29:54.624Z,10.9861
2019-04-07T10:30:57.210Z,10.7752
2019-04-07T10:32:01.300Z,10.9434
2019-04-07T10:33:04.252Z,11.0716
2019-04-07T10:34:07.447Z,10.9007
2019-04-07T10:35:12.524Z,11.1437
2019-04-07T10:36:15.904Z,11.4668
2019-04-07T10:37:19.195Z,11.2264
2019-04-07T10:38:22.227Z,10.7752
2019-04-07T10:39:27.554Z,10.6764
2019-04-07T10:40:31.150Z,10.7885
2019-04-07T10:41:34.650Z,10.5348
2019-04-07T10:42:38.050Z,10.5348
2019-04-07T10:43:41.229Z,10.4921
2019-04-07T10:44:45.057Z,10.3666
2019-04-07T10:45:47.206Z,10.4787
2019-04-07T10:46:50.404Z,10.5482
2019-04-07T10:47:53.325Z,10.4227
2019-04-07T10:48:56.218Z,10.4494
2019-04-07T10:50:05.118Z,10.4921
2019-04-07T10:51:07.902Z,10.5909
2019-04-07T10:52:11.322Z,10.5215
2019-04-07T10:53:14.356Z,10.4093
2019-04-07T10:54:17.418Z,10.4227
2019-04-07T10:55:20.742Z,10.6630
2019-04-07T10:56:23.175Z,10.7591
2019-04-07T10:57:26.685Z,10.8019
2019-04-07T10:58:29.206Z,11.0582
2019-04-07T10:59:32.244Z,10.9434
2019-04-07T11:00:35.207Z,11.0716
2019-04-07T11:01:38.197Z,11.0716
2019-04-07T11:02:41.471Z,11.5095
2019-04-07T11:03:46.242Z,11.3546
2019-04-07T11:04:52.660Z,11.2852
2019-04-07T11:05:57.257Z,11.1143
2019-04-07T11:07:03.008Z,10.7885
2019-04-07T11:08:07.100Z,11.2264
2019-04-07T11:09:11.128Z,11.3973
2019-04-07T11:10:14.242Z,11.1303
2019-04-07T11:11:18.006Z,11.0422
2019-04-07T11:12:21.880Z,10.8179
2019-04-07T11:13:24.469Z,11.0876
2019-04-07T11:14:27.228Z,11.0128
2019-04-07T11:15:30.669Z,11.1143
2019-04-07T11:16:33.770Z,11.0128
2019-04-07T11:17:36.203Z,11.1864
2019-04-07T11:18:40.331Z,11.0582
2019-04-07T11:19:43.517Z,11.0876
2019-04-07T11:20:47.158Z,10.9300
2019-04-07T11:21:50.296Z,10.9995
2019-04-07T11:22:54.085Z,11.0716
2019-04-07T11:23:58.870Z,10.8873
2019-04-07T11:25:03.598Z,10.9300
2019-04-07T11:26:06.956Z,10.8740
2019-04-07T11:27:10.334Z,11.0582
2019-04-07T11:28:13.398Z,11.3813
2019-04-07T11:29:16.599Z,11.2558
2019-04-07T11:30:19.199Z,11.4107
2019-04-07T11:31:23.148Z,11.4961
2019-04-07T11:32:26.208Z,11.2692
2019-04-07T11:33:29.224Z,11.0288
2019-04-07T11:34:33.046Z,11.1437
2019-04-07T11:35:36.910Z,11.2131
2019-04-07T11:36:41.215Z,11.1997
2019-04-07T11:37:44.055Z,11.1864
2019-04-07T11:38:47.257Z,11.1997
2019-04-07T11:39:50.230Z,11.3973
2019-04-07T11:40:52.458Z,11.4534
2019-04-07T11:41:55.761Z,11.3813
2019-04-07T11:42:58.856Z,11.5389
2019-04-07T11:44:02.217Z,11.5389
2019-04-07T11:45:06.142Z,11.1570
2019-04-07T11:46:09.224Z,11.2985
2019-04-07T11:47:11.255Z,11.1570
2019-04-07T11:48:14.468Z,11.2264
2019-04-07T11:49:17.194Z,11.4668
2019-04-07T11:50:20.194Z,11.4668
2019-04-07T11:51:24.280Z,11.1570
2019-04-07T11:52:27.855Z,10.9007
2019-04-07T11:53:30.284Z,11.0422
2019-04-07T11:54:33.887Z,11.2131
2019-04-07T11:55:37.709Z,11.0422
2019-04-07T11:56:40.206Z,10.9434
2019-04-07T11:57:45.192Z,10.9567
2019-04-07T11:58:48.736Z,11.1009
2019-04-07T11:59:51.342Z,10.9434
2019-04-07T12:00:53.913Z,10.9728
2019-04-07T12:01:57.221Z,11.0422
2019-04-07T12:03:00.827Z,10.9140
2019-04-07T12:04:03.215Z,10.8019
2019-04-07T12:05:06.519Z,10.9300
2019-04-07T12:06:11.343Z,11.0716
2019-04-07T12:07:20.323Z,11.3680
2019-04-07T12:08:25.184Z,11.3252
2019-04-07T12:09:32.203Z,11.7071
2019-04-07T12:10:35.244Z,11.7659
2019-04-07T12:11:38.675Z,11.3546
2019-04-07T12:12:42.345Z,11.3546
2019-04-07T12:13:45.198Z,11.2131
2019-04-07T12:14:51.454Z,11.4240
2019-04-07T12:15:57.112Z,11.4961
2019-04-07T12:17:05.089Z,11.4668
2019-04-07T12:18:11.755Z,11.4107
2019-04-07T12:19:17.389Z,11.2425
2019-04-07T12:20:20.742Z,11.3813
2019-04-07T12:21:25.438Z,11.3119
2019-04-07T12:22:29.301Z,11.8647
2019-04-07T12:23:32.722Z,11.9074
2019-04-07T12:24:35.200Z,11.3680
2019-04-07T12:25:40.094Z,11.6083
2019-04-07T12:26:45.130Z,11.5095
2019-04-07T12:27:48.198Z,11.2852
2019-04-07T12:28:53.741Z,11.3973
2019-04-07T12:29:56.905Z,11.1143
2019-04-07T12:31:00.183Z,11.1303
2019-04-07T12:32:03.886Z,11.1864
2019-04-07T12:33:08.751Z,11.1704
2019-04-07T12:34:14.114Z,10.9300
2019-04-07T12:35:19.508Z,11.1704
2019-04-07T12:36:28.880Z,11.2558
2019-04-07T12:37:37.265Z,11.5095
2019-04-07T12:38:43.982Z,11.4801
2019-04-07T12:39:50.134Z,11.9207
2019-04-07T12:41:04.061Z,11.5389
2019-04-07T12:42:04.394Z,11.5522
2019-04-07T12:43:12.073Z,11.4107
2019-04-07T12:44:20.149Z,11.3680
2019-04-07T12:45:24.265Z,11.6217
2019-04-07T12:46:28.032Z,11.4668
2019-04-07T12:47:32.018Z,11.6938
2019-04-07T12:48:36.085Z,11.5229
2019-04-07T12:49:42.220Z,11.5656
2019-04-07T12:50:49.945Z,11.4240
2019-04-07T12:51:55.955Z,11.7071
2019-04-07T12:53:02.399Z,12.2438
2019-04-07T12:54:09.222Z,12.2011
2019-04-07T12:55:17.508Z,11.9341
2019-04-07T12:56:21.047Z,11.8353
2019-04-07T12:57:23.194Z,11.8647
2019-04-07T12:58:26.647Z,12.3426
2019-04-07T12:59:29.399Z,12.6284
2019-04-07T13:00:44.687Z,11.9207
2019-04-07T13:01:43.809Z,12.2171
2019-04-07T13:02:51.598Z,11.8219
2019-04-07T13:03:57.451Z,11.4534
2019-04-07T13:05:02.887Z,11.6217
2019-04-07T13:06:09.262Z,11.8780
2019-04-07T13:07:17.065Z,11.8914
2019-04-07T13:08:24.039Z,12.0756
2019-04-07T13:09:32.022Z,12.0890